sensor_id;sensor_type;location;lat;lon;timestamp;pressure;altitude;pressure_sealevel;temperature;humidity
6224;BME280;3145;42.726;23.342;2023-04-15T00:00:43;72486.34;;;-142.70;63.58
6224;BME280;3145;42.726;23.342;2023-04-15T00:03:09;72482.34;;;-142.70;63.62
6224;BME280;3145;42.726;23.342;2023-04-15T00:05:38;72484.34;;;-142.70;62.91
6224;BME280;3145;42.726;23.342;2023-04-15T00:08:04;72500.47;;;-142.70;62.06
6224;BME280;3145;42.726;23.342;2023-04-15T00:10:32;72502.47;;;-142.70;61.45
6224;BME280;3145;42.726;23.342;2023-04-15T00:12:59;72514.56;;;-142.70;61.89
6224;BME280;3145;42.726;23.342;2023-04-15T00:15:26;72528.66;;;-142.70;62.50
6224;BME280;3145;42.726;23.342;2023-04-15T00:17:53;72528.66;;;-142.70;63.25
6224;BME280;3145;42.726;23.342;2023-04-15T00:20:20;72528.66;;;-142.70;64.01
6224;BME280;3145;42.726;23.342;2023-04-15T00:22:48;72542.75;;;-142.70;64.16
6224;BME280;3145;42.726;23.342;2023-04-15T00:25:15;72556.88;;;-142.70;64.63
6224;BME280;3145;42.726;23.342;2023-04-15T00:27:41;72568.97;;;-142.70;64.30
6224;BME280;3145;42.726;23.342;2023-04-15T00:30:08;72564.94;;;-142.70;64.79
6224;BME280;3145;42.726;23.342;2023-04-15T00:32:36;72589.09;;;-142.70;64.98
6224;BME280;3145;42.726;23.342;2023-04-15T00:35:03;72579.03;;;-142.70;65.62
6224;BME280;3145;42.726;23.342;2023-04-15T00:37:30;72570.97;;;-142.70;65.87
6224;BME280;3145;42.726;23.342;2023-04-15T00:39:58;72560.91;;;-142.70;66.57
6224;BME280;3145;42.726;23.342;2023-04-15T00:42:25;72556.88;;;-142.70;66.77
6224;BME280;3145;42.726;23.342;2023-04-15T00:44:51;72536.72;;;-142.70;66.70
6224;BME280;3145;42.726;23.342;2023-04-15T00:47:19;72528.66;;;-142.70;67.76
6224;BME280;3145;42.726;23.342;2023-04-15T00:49:46;72510.53;;;-142.70;67.90
6224;BME280;3145;42.726;23.342;2023-04-15T00:52:13;72504.50;;;-142.70;67.48
6224;BME280;3145;42.726;23.342;2023-04-15T00:54:39;72500.47;;;-142.70;67.37
6224;BME280;3145;42.726;23.342;2023-04-15T00:57:08;72500.47;;;-142.70;66.50
6224;BME280;3145;42.726;23.342;2023-04-15T00:59:34;72494.41;;;-142.70;66.38
6224;BME280;3145;42.726;23.342;2023-04-15T01:02:01;72496.44;;;-142.70;66.17
6224;BME280;3145;42.726;23.342;2023-04-15T01:04:28;72510.53;;;-142.70;66.50
6224;BME280;3145;42.726;23.342;2023-04-15T01:06:55;72506.50;;;-142.70;66.82
6224;BME280;3145;42.726;23.342;2023-04-15T01:09:22;72500.47;;;-142.70;66.99
6224;BME280;3145;42.726;23.342;2023-04-15T01:11:49;72506.50;;;-142.70;67.25
6224;BME280;3145;42.726;23.342;2023-04-15T01:14:17;72516.56;;;-142.70;66.81
6224;BME280;3145;42.726;23.342;2023-04-15T01:16:44;72552.84;;;-142.70;67.31
6224;BME280;3145;42.726;23.342;2023-04-15T01:19:13;72556.88;;;-142.70;67.71
6224;BME280;3145;42.726;23.342;2023-04-15T01:21:42;72560.91;;;-142.70;68.08
6224;BME280;3145;42.726;23.342;2023-04-15T01:24:09;72575.00;;;-142.70;67.20
6224;BME280;3145;42.726;23.342;2023-04-15T01:26:38;72568.97;;;-142.70;67.13
6224;BME280;3145;42.726;23.342;2023-04-15T01:29:05;72564.94;;;-142.70;66.75
6224;BME280;3145;42.726;23.342;2023-04-15T01:31:32;72566.94;;;-142.70;66.13
6224;BME280;3145;42.726;23.342;2023-04-15T01:34:00;72564.94;;;-142.70;67.14
6224;BME280;3145;42.726;23.342;2023-04-15T01:36:27;72560.91;;;-142.70;67.91
6224;BME280;3145;42.726;23.342;2023-04-15T01:38:55;72554.84;;;-142.70;68.66
6224;BME280;3145;42.726;23.342;2023-04-15T01:41:24;72548.81;;;-142.70;68.75
6224;BME280;3145;42.726;23.342;2023-04-15T01:43:52;72538.75;;;-142.70;68.79
6224;BME280;3145;42.726;23.342;2023-04-15T01:46:19;72534.72;;;-142.70;68.62
6224;BME280;3145;42.726;23.342;2023-04-15T01:48:46;72540.75;;;-142.70;67.88
6224;BME280;3145;42.726;23.342;2023-04-15T01:51:13;72548.81;;;-142.70;67.64
6224;BME280;3145;42.726;23.342;2023-04-15T01:53:39;72613.28;;;-142.70;67.29
6224;BME280;3145;42.726;23.342;2023-04-15T01:56:06;72693.84;;;-142.70;68.71
6224;BME280;3145;42.726;23.342;2023-04-15T01:58:33;72720.06;;;-142.70;69.24
6224;BME280;3145;42.726;23.342;2023-04-15T02:01:01;72750.28;;;-142.70;70.73
6224;BME280;3145;42.726;23.342;2023-04-15T02:03:29;72744.22;;;-142.70;71.23
6224;BME280;3145;42.726;23.342;2023-04-15T02:05:55;72744.22;;;-142.70;71.79
6224;BME280;3145;42.726;23.342;2023-04-15T02:08:22;72754.28;;;-142.70;72.01
6224;BME280;3145;42.726;23.342;2023-04-15T02:10:49;72754.28;;;-142.70;71.89
6224;BME280;3145;42.726;23.342;2023-04-15T02:13:17;72798.63;;;-142.70;72.49
6224;BME280;3145;42.726;23.342;2023-04-15T02:15:46;72804.66;;;-142.70;73.18
6224;BME280;3145;42.726;23.342;2023-04-15T02:18:15;72822.78;;;-142.70;73.50
6224;BME280;3145;42.726;23.342;2023-04-15T02:20:42;72828.84;;;-142.70;73.98
6224;BME280;3145;42.726;23.342;2023-04-15T02:23:09;72820.78;;;-142.70;74.48
6224;BME280;3145;42.726;23.342;2023-04-15T02:25:36;72814.75;;;-142.70;74.35
6224;BME280;3145;42.726;23.342;2023-04-15T02:28:03;72804.66;;;-142.70;74.33
6224;BME280;3145;42.726;23.342;2023-04-15T02:30:30;72806.69;;;-142.70;74.14
6224;BME280;3145;42.726;23.342;2023-04-15T02:32:57;72800.63;;;-142.70;73.81
6224;BME280;3145;42.726;23.342;2023-04-15T02:35:25;72786.53;;;-142.70;73.94
6224;BME280;3145;42.726;23.342;2023-04-15T02:37:52;72776.47;;;-142.70;73.60
6224;BME280;3145;42.726;23.342;2023-04-15T02:40:19;72798.63;;;-142.70;73.54
6224;BME280;3145;42.726;23.342;2023-04-15T02:42:46;72790.56;;;-142.70;73.02
6224;BME280;3145;42.726;23.342;2023-04-15T02:45:13;72806.69;;;-142.70;72.52
6224;BME280;3145;42.726;23.342;2023-04-15T02:47:39;72798.63;;;-142.70;72.70
6224;BME280;3145;42.726;23.342;2023-04-15T02:50:09;72782.50;;;-142.70;72.83
6224;BME280;3145;42.726;23.342;2023-04-15T02:52:39;72786.53;;;-142.70;72.69
6224;BME280;3145;42.726;23.342;2023-04-15T02:55:07;72784.53;;;-142.70;72.37
6224;BME280;3145;42.726;23.342;2023-04-15T02:57:34;72778.47;;;-142.70;72.44
6224;BME280;3145;42.726;23.342;2023-04-15T03:00:04;72806.69;;;-142.70;71.05
6224;BME280;3145;42.726;23.342;2023-04-15T03:02:34;72808.69;;;-142.70;70.81
6224;BME280;3145;42.726;23.342;2023-04-15T03:05:01;72834.88;;;-142.70;70.60
6224;BME280;3145;42.726;23.342;2023-04-15T03:07:28;72846.97;;;-142.70;70.45
6224;BME280;3145;42.726;23.342;2023-04-15T03:09:56;72840.94;;;-142.70;71.16
6224;BME280;3145;42.726;23.342;2023-04-15T03:12:23;72830.84;;;-142.70;71.77
6224;BME280;3145;42.726;23.342;2023-04-15T03:14:50;72824.81;;;-142.70;71.11
6224;BME280;3145;42.726;23.342;2023-04-15T03:17:16;72830.84;;;-142.70;71.13
6224;BME280;3145;42.726;23.342;2023-04-15T03:19:43;72830.84;;;-142.70;71.12
6224;BME280;3145;42.726;23.342;2023-04-15T03:22:10;72838.91;;;-142.70;70.88
6224;BME280;3145;42.726;23.342;2023-04-15T03:24:36;72846.97;;;-142.70;70.76
6224;BME280;3145;42.726;23.342;2023-04-15T03:27:04;72851.00;;;-142.70;70.77
6224;BME280;3145;42.726;23.342;2023-04-15T03:29:32;72859.06;;;-142.70;70.67
6224;BME280;3145;42.726;23.342;2023-04-15T03:31:59;72855.03;;;-142.70;70.99
6224;BME280;3145;42.726;23.342;2023-04-15T03:34:26;72851.00;;;-142.70;71.12
6224;BME280;3145;42.726;23.342;2023-04-15T03:36:52;72842.94;;;-142.70;71.44
6224;BME280;3145;42.726;23.342;2023-04-15T03:39:19;72834.88;;;-142.70;71.15
6224;BME280;3145;42.726;23.342;2023-04-15T03:41:46;72834.88;;;-142.70;71.35
6224;BME280;3145;42.726;23.342;2023-04-15T03:44:14;72830.84;;;-142.70;72.72
6224;BME280;3145;42.726;23.342;2023-04-15T03:46:41;72834.88;;;-142.70;74.98
6224;BME280;3145;42.726;23.342;2023-04-15T03:49:08;72834.88;;;-142.70;74.53
6224;BME280;3145;42.726;23.342;2023-04-15T03:51:34;72834.88;;;-142.70;74.16
6224;BME280;3145;42.726;23.342;2023-04-15T03:54:01;72828.84;;;-142.70;73.47
6224;BME280;3145;42.726;23.342;2023-04-15T03:56:28;72822.78;;;-142.70;73.32
6224;BME280;3145;42.726;23.342;2023-04-15T03:58:54;72810.72;;;-142.70;72.84
6224;BME280;3145;42.726;23.342;2023-04-15T04:01:23;72798.63;;;-142.70;72.58
6224;BME280;3145;42.726;23.342;2023-04-15T04:03:49;72788.53;;;-142.70;72.42
6224;BME280;3145;42.726;23.342;2023-04-15T04:06:16;72778.47;;;-142.70;71.98
6224;BME280;3145;42.726;23.342;2023-04-15T04:08:44;72738.19;;;-142.70;71.76
6224;BME280;3145;42.726;23.342;2023-04-15T04:11:11;72701.91;;;-142.70;71.12
6224;BME280;3145;42.726;23.342;2023-04-15T04:13:37;72657.59;;;-142.70;70.24
6224;BME280;3145;42.726;23.342;2023-04-15T04:16:05;72609.25;;;-142.70;69.43
6224;BME280;3145;42.726;23.342;2023-04-15T04:18:33;72568.97;;;-142.70;68.87
6224;BME280;3145;42.726;23.342;2023-04-15T04:21:00;72536.72;;;-142.70;68.39
6224;BME280;3145;42.726;23.342;2023-04-15T04:23:27;72520.59;;;-142.70;65.79
6224;BME280;3145;42.726;23.342;2023-04-15T04:25:53;72476.28;;;-142.70;65.64
6224;BME280;3145;42.726;23.342;2023-04-15T04:28:20;72427.94;;;-142.70;65.22
6224;BME280;3145;42.726;23.342;2023-04-15T04:30:47;72375.56;;;-142.70;64.47
6224;BME280;3145;42.726;23.342;2023-04-15T04:33:14;72325.22;;;-142.70;63.11
6224;BME280;3145;42.726;23.342;2023-04-15T04:35:42;72276.88;;;-142.70;61.94
6224;BME280;3145;42.726;23.342;2023-04-15T04:38:09;72228.53;;;-142.70;59.56
6224;BME280;3145;42.726;23.342;2023-04-15T04:40:36;72188.22;;;-142.70;57.27
6224;BME280;3145;42.726;23.342;2023-04-15T04:43:02;72151.97;;;-142.70;54.96
6224;BME280;3145;42.726;23.342;2023-04-15T04:45:29;72113.69;;;-142.70;52.88
6224;BME280;3145;42.726;23.342;2023-04-15T04:47:56;72089.53;;;-142.70;50.56
6224;BME280;3145;42.726;23.342;2023-04-15T04:50:22;72059.31;;;-142.70;49.56
6224;BME280;3145;42.726;23.342;2023-04-15T04:52:50;72031.13;;;-142.70;47.99
6224;BME280;3145;42.726;23.342;2023-04-15T04:55:17;72004.94;;;-142.70;47.19
6224;BME280;3145;42.726;23.342;2023-04-15T04:57:44;71968.69;;;-142.70;46.59
6224;BME280;3145;42.726;23.342;2023-04-15T05:00:12;71936.44;;;-142.70;46.06
6224;BME280;3145;42.726;23.342;2023-04-15T05:02:39;71924.38;;;-142.70;45.68
6224;BME280;3145;42.726;23.342;2023-04-15T05:05:08;71882.06;;;-142.70;44.29
6224;BME280;3145;42.726;23.342;2023-04-15T05:07:35;71851.84;;;-142.70;44.21
6224;BME280;3145;42.726;23.342;2023-04-15T05:10:04;71823.66;;;-142.70;43.58
6224;BME280;3145;42.726;23.342;2023-04-15T05:12:31;71791.44;;;-142.70;43.12
6224;BME280;3145;42.726;23.342;2023-04-15T05:14:57;71785.41;;;-142.70;42.16
6224;BME280;3145;42.726;23.342;2023-04-15T05:17:24;71845.81;;;-142.70;42.96
6224;BME280;3145;42.726;23.342;2023-04-15T05:19:51;71795.47;;;-142.70;42.80
6224;BME280;3145;42.726;23.342;2023-04-15T05:22:18;71763.25;;;-142.70;41.54
6224;BME280;3145;42.726;23.342;2023-04-15T05:24:44;71714.91;;;-142.70;41.25
6224;BME280;3145;42.726;23.342;2023-04-15T05:27:13;71708.88;;;-142.70;40.27
6224;BME280;3145;42.726;23.342;2023-04-15T05:29:40;71690.72;;;-142.70;39.66
6224;BME280;3145;42.726;23.342;2023-04-15T05:32:06;71722.97;;;-142.70;40.74
6224;BME280;3145;42.726;23.342;2023-04-15T05:34:33;71714.91;;;-142.70;39.66
6224;BME280;3145;42.726;23.342;2023-04-15T05:37:00;71646.44;;;-142.70;39.16
6224;BME280;3145;42.726;23.342;2023-04-15T05:39:27;71638.38;;;-142.70;38.92
6224;BME280;3145;42.726;23.342;2023-04-15T05:41:53;71672.59;;;-142.70;37.14
6224;BME280;3145;42.726;23.342;2023-04-15T05:44:21;71646.44;;;-142.70;37.80
6224;BME280;3145;42.726;23.342;2023-04-15T05:46:48;71630.31;;;-142.70;37.06
6224;BME280;3145;42.726;23.342;2023-04-15T05:49:15;71632.31;;;-142.70;37.60
6224;BME280;3145;42.726;23.342;2023-04-15T05:51:41;71610.19;;;-142.70;37.17
6224;BME280;3145;42.726;23.342;2023-04-15T05:54:08;71614.19;;;-142.70;37.37
6224;BME280;3145;42.726;23.342;2023-04-15T05:56:35;71569.91;;;-142.70;37.47
6224;BME280;3145;42.726;23.342;2023-04-15T05:59:01;71529.63;;;-142.70;36.10
6224;BME280;3145;42.726;23.342;2023-04-15T06:01:29;71539.69;;;-142.70;36.21
6224;BME280;3145;42.726;23.342;2023-04-15T06:04:02;71543.72;;;-142.70;35.68
6224;BME280;3145;42.726;23.342;2023-04-15T06:06:29;71531.63;;;-142.70;35.70
6224;BME280;3145;42.726;23.342;2023-04-15T06:08:56;71513.50;;;-142.70;35.46
6224;BME280;3145;42.726;23.342;2023-04-15T06:11:24;71543.72;;;-142.70;35.18
6224;BME280;3145;42.726;23.342;2023-04-15T06:13:51;71549.75;;;-142.70;35.53
6224;BME280;3145;42.726;23.342;2023-04-15T06:16:18;71541.69;;;-142.70;35.95
6224;BME280;3145;42.726;23.342;2023-04-15T06:18:46;71549.75;;;-142.70;35.67
6224;BME280;3145;42.726;23.342;2023-04-15T06:21:12;71537.66;;;-142.70;35.61
6224;BME280;3145;42.726;23.342;2023-04-15T06:23:39;71557.81;;;-142.70;35.91
6224;BME280;3145;42.726;23.342;2023-04-15T06:26:06;71549.75;;;-142.70;35.77
6224;BME280;3145;42.726;23.342;2023-04-15T06:28:33;71509.47;;;-142.70;35.70
6224;BME280;3145;42.726;23.342;2023-04-15T06:31:00;71618.22;;;-142.70;35.85
6224;BME280;3145;42.726;23.342;2023-04-15T06:33:27;71551.78;;;-142.70;36.02
6224;BME280;3145;42.726;23.342;2023-04-15T06:35:55;71541.69;;;-142.70;35.51
6224;BME280;3145;42.726;23.342;2023-04-15T06:38:21;71586.00;;;-142.70;36.11
6224;BME280;3145;42.726;23.342;2023-04-15T06:40:48;71646.44;;;-142.70;37.55
6224;BME280;3145;42.726;23.342;2023-04-15T06:43:15;71642.41;;;-142.70;37.71
6224;BME280;3145;42.726;23.342;2023-04-15T06:45:42;71690.72;;;-142.70;37.73
6224;BME280;3145;42.726;23.342;2023-04-15T06:48:08;71753.16;;;-142.70;39.03
6224;BME280;3145;42.726;23.342;2023-04-15T06:50:39;71668.59;;;-142.70;39.46
6224;BME280;3145;42.726;23.342;2023-04-15T06:53:07;71569.91;;;-142.70;37.63
6224;BME280;3145;42.726;23.342;2023-04-15T06:55:34;71626.28;;;-142.70;37.94
6224;BME280;3145;42.726;23.342;2023-04-15T06:58:01;71586.00;;;-142.70;37.31
6224;BME280;3145;42.726;23.342;2023-04-15T07:00:27;71541.69;;;-142.70;36.65
6224;BME280;3145;42.726;23.342;2023-04-15T07:02:55;71469.19;;;-142.70;37.22
6224;BME280;3145;42.726;23.342;2023-04-15T07:05:21;71434.97;;;-142.70;36.13
6224;BME280;3145;42.726;23.342;2023-04-15T07:07:49;71467.19;;;-142.70;36.59
6224;BME280;3145;42.726;23.342;2023-04-15T07:10:18;71513.50;;;-142.70;37.20
6224;BME280;3145;42.726;23.342;2023-04-15T07:12:47;71618.22;;;-142.70;38.48
6224;BME280;3145;42.726;23.342;2023-04-15T07:15:15;71630.31;;;-142.70;39.44
6224;BME280;3145;42.726;23.342;2023-04-15T07:17:41;71614.19;;;-142.70;39.36
6224;BME280;3145;42.726;23.342;2023-04-15T07:20:09;71632.31;;;-142.70;39.31
6224;BME280;3145;42.726;23.342;2023-04-15T07:22:37;71662.53;;;-142.70;39.89
6224;BME280;3145;42.726;23.342;2023-04-15T07:25:04;71581.97;;;-142.70;38.73
6224;BME280;3145;42.726;23.342;2023-04-15T07:27:33;71634.34;;;-142.70;39.63
6224;BME280;3145;42.726;23.342;2023-04-15T07:30:00;71547.75;;;-142.70;39.34
6224;BME280;3145;42.726;23.342;2023-04-15T07:32:27;71491.34;;;-142.70;37.84
6224;BME280;3145;42.726;23.342;2023-04-15T07:34:53;71467.19;;;-142.70;37.28
6224;BME280;3145;42.726;23.342;2023-04-15T07:37:22;71414.81;;;-142.70;36.89
6224;BME280;3145;42.726;23.342;2023-04-15T07:39:49;71360.44;;;-142.70;36.24
6224;BME280;3145;42.726;23.342;2023-04-15T07:42:17;71533.66;;;-142.70;37.20
6224;BME280;3145;42.726;23.342;2023-04-15T07:44:45;71529.63;;;-142.70;37.98
6224;BME280;3145;42.726;23.342;2023-04-15T07:47:12;71493.38;;;-142.70;36.82
6224;BME280;3145;42.726;23.342;2023-04-15T07:49:40;71533.66;;;-142.70;37.49
6224;BME280;3145;42.726;23.342;2023-04-15T07:52:07;71539.69;;;-142.70;37.52
6224;BME280;3145;42.726;23.342;2023-04-15T07:54:34;71499.41;;;-142.70;36.79
6224;BME280;3145;42.726;23.342;2023-04-15T07:57:00;71497.41;;;-142.70;36.39
6224;BME280;3145;42.726;23.342;2023-04-15T07:59:27;71565.88;;;-142.70;37.23
6224;BME280;3145;42.726;23.342;2023-04-15T08:01:55;71513.50;;;-142.70;35.78
6224;BME280;3145;42.726;23.342;2023-04-15T08:04:22;71441.00;;;-142.70;35.12
6224;BME280;3145;42.726;23.342;2023-04-15T08:06:49;71348.38;;;-142.70;34.59
6224;BME280;3145;42.726;23.342;2023-04-15T08:09:16;71404.75;;;-142.70;34.92
6224;BME280;3145;42.726;23.342;2023-04-15T08:11:43;71424.91;;;-142.70;35.56
6224;BME280;3145;42.726;23.342;2023-04-15T08:14:10;71453.09;;;-142.70;35.94
6224;BME280;3145;42.726;23.342;2023-04-15T08:16:37;71573.94;;;-142.70;37.06
6224;BME280;3145;42.726;23.342;2023-04-15T08:19:05;71579.97;;;-142.70;37.57
6224;BME280;3145;42.726;23.342;2023-04-15T08:21:32;71602.13;;;-142.70;36.87
6224;BME280;3145;42.726;23.342;2023-04-15T08:23:59;71561.84;;;-142.70;36.51
6224;BME280;3145;42.726;23.342;2023-04-15T08:26:26;71539.69;;;-142.70;35.86
6224;BME280;3145;42.726;23.342;2023-04-15T08:28:52;71473.22;;;-142.70;36.98
6224;BME280;3145;42.726;23.342;2023-04-15T08:31:20;71515.53;;;-142.70;36.44
6224;BME280;3145;42.726;23.342;2023-04-15T08:33:47;71418.84;;;-142.70;35.89
6224;BME280;3145;42.726;23.342;2023-04-15T08:36:18;71384.63;;;-142.70;33.11
6224;BME280;3145;42.726;23.342;2023-04-15T08:38:44;71408.78;;;-142.70;33.22
6224;BME280;3145;42.726;23.342;2023-04-15T08:41:20;71338.31;;;-142.70;32.28
6224;BME280;3145;42.726;23.342;2023-04-15T08:43:52;71281.91;;;-142.70;32.14
6224;BME280;3145;42.726;23.342;2023-04-15T08:46:20;71316.16;;;-142.70;32.60
6224;BME280;3145;42.726;23.342;2023-04-15T08:48:48;71336.28;;;-142.70;32.49
6224;BME280;3145;42.726;23.342;2023-04-15T08:51:15;71420.88;;;-142.70;33.79
6224;BME280;3145;42.726;23.342;2023-04-15T08:53:44;71449.06;;;-142.70;33.89
6224;BME280;3145;42.726;23.342;2023-04-15T08:56:13;71541.69;;;-142.70;34.39
6224;BME280;3145;42.726;23.342;2023-04-15T08:58:41;71469.19;;;-142.70;34.69
6224;BME280;3145;42.726;23.342;2023-04-15T09:01:10;71489.34;;;-142.70;33.95
6224;BME280;3145;42.726;23.342;2023-04-15T09:03:38;71477.25;;;-142.70;34.99
6224;BME280;3145;42.726;23.342;2023-04-15T09:06:04;71382.59;;;-142.70;34.47
6224;BME280;3145;42.726;23.342;2023-04-15T09:08:31;71432.94;;;-142.70;33.32
6224;BME280;3145;42.726;23.342;2023-04-15T09:11:00;71489.34;;;-142.70;34.10
6224;BME280;3145;42.726;23.342;2023-04-15T09:13:28;71416.84;;;-142.70;33.08
6224;BME280;3145;42.726;23.342;2023-04-15T09:15:55;71312.13;;;-142.70;32.96
6224;BME280;3145;42.726;23.342;2023-04-15T09:18:26;71263.78;;;-142.70;31.13
6224;BME280;3145;42.726;23.342;2023-04-15T09:20:54;71201.38;;;-142.70;31.05
6224;BME280;3145;42.726;23.342;2023-04-15T09:23:21;71159.06;;;-142.70;30.70
6224;BME280;3145;42.726;23.342;2023-04-15T09:25:48;71086.59;;;-142.70;29.93
6224;BME280;3145;42.726;23.342;2023-04-15T09:28:24;71060.41;;;-142.70;29.29
6224;BME280;3145;42.726;23.342;2023-04-15T09:30:54;71044.28;;;-142.70;29.43
6224;BME280;3145;42.726;23.342;2023-04-15T09:33:22;71050.34;;;-142.70;29.06
6224;BME280;3145;42.726;23.342;2023-04-15T09:35:56;71032.22;;;-142.70;28.94
6224;BME280;3145;42.726;23.342;2023-04-15T09:38:24;71014.09;;;-142.70;29.24
6224;BME280;3145;42.726;23.342;2023-04-15T09:40:51;70949.66;;;-142.70;28.42
6224;BME280;3145;42.726;23.342;2023-04-15T09:43:18;70961.75;;;-142.70;28.16
6224;BME280;3145;42.726;23.342;2023-04-15T09:45:51;70897.31;;;-142.70;28.28
6224;BME280;3145;42.726;23.342;2023-04-15T09:48:20;70889.25;;;-142.70;27.76
6224;BME280;3145;42.726;23.342;2023-04-15T09:50:47;70901.34;;;-142.70;27.17
6224;BME280;3145;42.726;23.342;2023-04-15T09:53:18;71006.03;;;-142.70;27.63
6224;BME280;3145;42.726;23.342;2023-04-15T09:55:48;71106.72;;;-142.70;29.09
6224;BME280;3145;42.726;23.342;2023-04-15T09:58:19;71155.06;;;-142.70;28.74
6224;BME280;3145;42.726;23.342;2023-04-15T10:00:49;71159.06;;;-142.70;29.11
6224;BME280;3145;42.726;23.342;2023-04-15T10:03:19;71163.09;;;-142.70;28.99
6224;BME280;3145;42.726;23.342;2023-04-15T10:05:47;71201.38;;;-142.70;28.73
6224;BME280;3145;42.726;23.342;2023-04-15T10:08:17;71287.97;;;-142.70;29.54
6224;BME280;3145;42.726;23.342;2023-04-15T10:10:44;71283.94;;;-142.70;29.29
6224;BME280;3145;42.726;23.342;2023-04-15T10:13:12;71247.69;;;-142.70;29.56
6224;BME280;3145;42.726;23.342;2023-04-15T10:15:43;71201.38;;;-142.70;29.26
6224;BME280;3145;42.726;23.342;2023-04-15T10:18:14;71171.16;;;-142.70;29.94
6224;BME280;3145;42.726;23.342;2023-04-15T10:20:41;71114.78;;;-142.70;29.17
6224;BME280;3145;42.726;23.342;2023-04-15T10:23:09;71074.50;;;-142.70;28.38
6224;BME280;3145;42.726;23.342;2023-04-15T10:25:36;71054.38;;;-142.70;28.78
6224;BME280;3145;42.726;23.342;2023-04-15T10:28:05;70993.97;;;-142.70;28.83
6224;BME280;3145;42.726;23.342;2023-04-15T10:30:32;70951.66;;;-142.70;26.55
6224;BME280;3145;42.726;23.342;2023-04-15T10:32:59;70879.19;;;-142.70;26.99
6224;BME280;3145;42.726;23.342;2023-04-15T10:35:28;70814.75;;;-142.70;25.69
6224;BME280;3145;42.726;23.342;2023-04-15T10:37:56;70804.69;;;-142.70;26.32
6224;BME280;3145;42.726;23.342;2023-04-15T10:40:25;70893.28;;;-142.70;26.90
6224;BME280;3145;42.726;23.342;2023-04-15T10:42:53;70933.56;;;-142.70;26.59
6224;BME280;3145;42.726;23.342;2023-04-15T10:45:21;70941.59;;;-142.70;26.80
6224;BME280;3145;42.726;23.342;2023-04-15T10:47:51;70971.81;;;-142.70;27.18
6224;BME280;3145;42.726;23.342;2023-04-15T10:50:18;70955.69;;;-142.70;28.05
6224;BME280;3145;42.726;23.342;2023-04-15T10:52:49;70945.63;;;-142.70;26.82
6224;BME280;3145;42.726;23.342;2023-04-15T10:55:20;71090.63;;;-142.70;27.91
6224;BME280;3145;42.726;23.342;2023-04-15T10:57:51;71134.91;;;-142.70;28.29
6224;BME280;3145;42.726;23.342;2023-04-15T11:00:19;71187.28;;;-142.70;28.46
6224;BME280;3145;42.726;23.342;2023-04-15T11:02:52;71207.41;;;-142.70;28.22
6224;BME280;3145;42.726;23.342;2023-04-15T11:05:20;71179.22;;;-142.70;28.18
6224;BME280;3145;42.726;23.342;2023-04-15T11:07:51;71155.06;;;-142.70;28.09
6224;BME280;3145;42.726;23.342;2023-04-15T11:10:52;71151.03;;;-142.70;28.72
6224;BME280;3145;42.726;23.342;2023-04-15T11:13:25;71110.75;;;-142.70;28.29
6224;BME280;3145;42.726;23.342;2023-04-15T11:15:57;71130.88;;;-142.70;28.06
6224;BME280;3145;42.726;23.342;2023-04-15T11:18:27;71171.16;;;-142.70;28.25
6224;BME280;3145;42.726;23.342;2023-04-15T11:20:57;71116.78;;;-142.70;27.96
6224;BME280;3145;42.726;23.342;2023-04-15T11:23:30;71072.50;;;-142.70;29.24
6224;BME280;3145;42.726;23.342;2023-04-15T11:25:58;71038.25;;;-142.70;27.46
6224;BME280;3145;42.726;23.342;2023-04-15T11:28:25;71098.66;;;-142.70;27.58
6224;BME280;3145;42.726;23.342;2023-04-15T11:30:53;71038.25;;;-142.70;27.44
6224;BME280;3145;42.726;23.342;2023-04-15T11:33:20;70997.97;;;-142.70;27.48
6224;BME280;3145;42.726;23.342;2023-04-15T11:35:48;70971.81;;;-142.70;27.17
6224;BME280;3145;42.726;23.342;2023-04-15T11:38:15;70917.44;;;-142.70;26.86
6224;BME280;3145;42.726;23.342;2023-04-15T11:40:43;70945.63;;;-142.70;25.92
6224;BME280;3145;42.726;23.342;2023-04-15T11:43:11;70965.75;;;-142.70;26.57
6224;BME280;3145;42.726;23.342;2023-04-15T11:45:48;70909.38;;;-142.70;26.18
6224;BME280;3145;42.726;23.342;2023-04-15T11:48:16;70877.16;;;-142.70;26.32
6224;BME280;3145;42.726;23.342;2023-04-15T11:50:45;70836.91;;;-142.70;26.48
6224;BME280;3145;42.726;23.342;2023-04-15T11:53:13;70893.28;;;-142.70;25.94
6224;BME280;3145;42.726;23.342;2023-04-15T11:55:43;71068.47;;;-142.70;27.00
6224;BME280;3145;42.726;23.342;2023-04-15T11:58:11;71126.84;;;-142.70;27.71
6224;BME280;3145;42.726;23.342;2023-04-15T12:00:39;71140.94;;;-142.70;27.79
6224;BME280;3145;42.726;23.342;2023-04-15T12:03:18;71191.28;;;-142.70;27.79
6224;BME280;3145;42.726;23.342;2023-04-15T12:06:19;71157.06;;;-142.70;27.67
6224;BME280;3145;42.726;23.342;2023-04-15T12:09:07;71122.84;;;-142.70;27.65
6224;BME280;3145;42.726;23.342;2023-04-15T12:11:40;71096.66;;;-142.70;28.13
6224;BME280;3145;42.726;23.342;2023-04-15T12:14:10;71038.25;;;-142.70;27.93
6224;BME280;3145;42.726;23.342;2023-04-15T12:16:40;71000.00;;;-142.70;26.28
6224;BME280;3145;42.726;23.342;2023-04-15T12:19:10;70997.97;;;-142.70;26.50
6224;BME280;3145;42.726;23.342;2023-04-15T12:21:38;71038.25;;;-142.70;26.77
6224;BME280;3145;42.726;23.342;2023-04-15T12:24:07;71074.50;;;-142.70;26.42
6224;BME280;3145;42.726;23.342;2023-04-15T12:26:36;71054.38;;;-142.70;26.40
6224;BME280;3145;42.726;23.342;2023-04-15T12:29:06;71058.41;;;-142.70;26.54
6224;BME280;3145;42.726;23.342;2023-04-15T12:31:33;71018.13;;;-142.70;26.66
6224;BME280;3145;42.726;23.342;2023-04-15T12:34:01;71062.41;;;-142.70;26.74
6224;BME280;3145;42.726;23.342;2023-04-15T12:36:29;71000.00;;;-142.70;26.01
6224;BME280;3145;42.726;23.342;2023-04-15T12:39:01;70969.78;;;-142.70;25.33
6224;BME280;3145;42.726;23.342;2023-04-15T12:41:28;70949.66;;;-142.70;25.39
6224;BME280;3145;42.726;23.342;2023-04-15T12:43:55;70957.72;;;-142.70;26.06
6224;BME280;3145;42.726;23.342;2023-04-15T12:46:23;71016.09;;;-142.70;25.76
6224;BME280;3145;42.726;23.342;2023-04-15T12:48:50;70957.72;;;-142.70;26.34
6224;BME280;3145;42.726;23.342;2023-04-15T12:51:18;70925.50;;;-142.70;25.99
6224;BME280;3145;42.726;23.342;2023-04-15T12:53:45;70925.50;;;-142.70;25.39